createdAt,value
2023-05-05T00:00:52.553Z,26.24
2023-05-05T00:01:52.602Z,26.24
2023-05-05T00:02:52.743Z,26.24
2023-05-05T00:03:52.781Z,26.24
2023-05-05T00:04:52.716Z,26.23
2023-05-05T00:05:52.772Z,26.24
2023-05-05T00:06:52.806Z,26.20
2023-05-05T00:07:52.853Z,26.21
2023-05-05T00:08:52.879Z,26.24
2023-05-05T00:09:52.918Z,26.18
2023-05-05T00:10:52.999Z,26.18
2023-05-05T00:11:52.991Z,26.20
2023-05-05T00:12:53.041Z,26.18
2023-05-05T00:13:53.031Z,26.17
2023-05-05T00:14:53.051Z,26.17
2023-05-05T00:15:53.108Z,26.16
2023-05-05T00:16:53.101Z,26.14
2023-05-05T00:17:53.291Z,26.17
2023-05-05T00:18:53.118Z,26.16
2023-05-05T00:19:53.135Z,26.17
2023-05-05T00:20:53.180Z,26.14
2023-05-05T00:21:53.176Z,26.16
2023-05-05T00:22:53.195Z,26.14
2023-05-05T00:23:53.204Z,26.16
2023-05-05T00:24:53.186Z,26.11
2023-05-05T00:25:53.196Z,26.13
2023-05-05T00:26:53.263Z,26.13
2023-05-05T00:27:53.278Z,26.14
2023-05-05T00:28:53.334Z,26.10
2023-05-05T00:29:53.328Z,26.13
2023-05-05T00:30:53.400Z,26.11
2023-05-05T00:31:53.384Z,26.13
2023-05-05T00:32:53.483Z,26.11
2023-05-05T00:33:53.405Z,26.11
2023-05-05T00:34:53.426Z,26.10
2023-05-05T00:35:53.434Z,26.10
2023-05-05T00:36:53.431Z,26.10
2023-05-05T00:37:53.422Z,26.08
2023-05-05T00:38:53.402Z,26.10
2023-05-05T00:39:53.421Z,26.11
2023-05-05T00:40:53.400Z,26.10
2023-05-05T00:41:53.396Z,26.08
2023-05-05T00:42:53.443Z,26.10
2023-05-05T00:43:53.395Z,26.07
2023-05-05T00:44:53.394Z,26.08
2023-05-05T00:45:53.397Z,26.08
2023-05-05T00:46:53.384Z,26.08
2023-05-05T00:47:53.394Z,26.10
2023-05-05T00:48:53.413Z,26.10
2023-05-05T00:49:53.361Z,26.08
2023-05-05T00:50:53.360Z,26.07
2023-05-05T00:51:53.356Z,26.08
2023-05-05T00:52:53.368Z,26.10
2023-05-05T00:53:53.380Z,26.07
2023-05-05T00:54:53.370Z,26.08
2023-05-05T00:55:53.373Z,26.07
2023-05-05T00:56:53.379Z,26.07
2023-05-05T00:57:53.383Z,26.08
2023-05-05T00:58:53.404Z,26.07
2023-05-05T00:59:53.365Z,26.07
2023-05-05T01:00:53.357Z,26.07
2023-05-05T01:01:53.389Z,26.05
2023-05-05T01:02:53.451Z,26.07
2023-05-05T01:03:53.493Z,26.05
2023-05-05T01:04:53.293Z,26.05
2023-05-05T01:05:53.297Z,26.05
2023-05-05T01:06:53.295Z,26.07
2023-05-05T01:07:53.302Z,26.05
2023-05-05T01:08:53.291Z,26.05
2023-05-05T01:10:04.240Z,26.04
2023-05-05T01:10:53.281Z,26.04
2023-05-05T01:11:53.231Z,26.05
2023-05-05T01:12:53.256Z,26.05
2023-05-05T01:13:53.219Z,26.04
2023-05-05T01:14:53.220Z,26.04
2023-05-05T01:15:53.256Z,26.01
2023-05-05T01:16:53.176Z,26.04
2023-05-05T01:17:53.214Z,26.04
2023-05-05T01:18:53.143Z,26.04
2023-05-05T01:19:53.134Z,26.03
2023-05-05T01:20:53.131Z,26.03
2023-05-05T01:21:53.098Z,26.04
2023-05-05T01:22:53.093Z,26.03
2023-05-05T01:23:53.084Z,26.01
2023-05-05T01:24:53.077Z,26.03
2023-05-05T01:25:53.028Z,26.01
2023-05-05T01:26:53.012Z,26.01
2023-05-05T01:27:52.993Z,26.03
2023-05-05T01:28:52.985Z,26.04
2023-05-05T01:29:52.968Z,26.03
2023-05-05T01:30:52.975Z,26.04
2023-05-05T01:31:52.992Z,26.01
2023-05-05T01:32:53.005Z,26.03
2023-05-05T01:33:52.899Z,26.03
2023-05-05T01:34:52.882Z,26.00
2023-05-05T01:35:52.866Z,26.01
2023-05-05T01:36:52.846Z,26.00
2023-05-05T01:37:52.822Z,26.01
2023-05-05T01:38:52.820Z,26.00
2023-05-05T01:39:52.792Z,26.00
2023-05-05T01:40:52.771Z,26.01
2023-05-05T01:41:52.762Z,26.00
2023-05-05T01:42:52.741Z,26.01
2023-05-05T01:43:52.726Z,26.00
2023-05-05T01:44:52.709Z,25.99
2023-05-05T01:45:52.698Z,25.99
2023-05-05T01:46:52.703Z,25.97
2023-05-05T01:47:52.677Z,26.00
2023-05-05T01:48:52.631Z,25.99
2023-05-05T01:49:52.647Z,26.01
2023-05-05T01:50:52.633Z,26.01
2023-05-05T01:51:52.591Z,25.99
2023-05-05T01:52:52.562Z,25.99
2023-05-05T01:53:52.554Z,26.00
2023-05-05T01:54:52.520Z,26.00
2023-05-05T01:55:52.505Z,25.99
2023-05-05T01:56:52.487Z,25.99
2023-05-05T01:57:52.496Z,26.01
2023-05-05T01:58:52.455Z,25.99
2023-05-05T01:59:52.431Z,26.00
2023-05-05T02:00:52.407Z,25.97
2023-05-05T02:01:52.391Z,25.99
2023-05-05T02:02:52.465Z,25.99
2023-05-05T02:03:52.347Z,26.01
2023-05-05T02:04:52.322Z,25.97
2023-05-05T02:05:52.339Z,26.00
2023-05-05T02:06:52.270Z,25.97
2023-05-05T02:07:52.254Z,25.99
2023-05-05T02:08:52.240Z,25.97
2023-05-05T02:09:52.215Z,25.96
2023-05-05T02:10:52.229Z,25.97
2023-05-05T02:11:52.181Z,26.00
2023-05-05T02:12:52.165Z,25.96
2023-05-05T02:13:52.151Z,25.96
2023-05-05T02:14:52.123Z,25.94
2023-05-05T02:15:52.149Z,25.97
2023-05-05T02:16:52.084Z,25.96
2023-05-05T02:17:52.116Z,25.97
2023-05-05T02:18:52.057Z,25.96
2023-05-05T02:19:52.016Z,25.94
2023-05-05T02:20:52.002Z,25.96
2023-05-05T02:21:51.982Z,25.94
2023-05-05T02:22:51.997Z,25.94
2023-05-05T02:23:52.144Z,25.99
2023-05-05T02:24:51.955Z,25.94
2023-05-05T02:25:51.928Z,25.97
2023-05-05T02:26:51.923Z,25.96
2023-05-05T02:27:51.907Z,25.96
2023-05-05T02:28:51.876Z,25.96
2023-05-05T02:29:51.830Z,25.94
2023-05-05T02:30:51.818Z,25.94
2023-05-05T02:31:51.839Z,25.96
2023-05-05T02:32:51.879Z,25.92
2023-05-05T02:33:51.736Z,25.93
2023-05-05T02:34:51.744Z,25.92
2023-05-05T02:35:51.709Z,25.94
2023-05-05T02:36:51.681Z,25.94
2023-05-05T02:37:51.655Z,25.94
2023-05-05T02:38:51.624Z,25.94
2023-05-05T02:39:51.618Z,25.93
2023-05-05T02:40:51.605Z,25.93
2023-05-05T02:41:51.552Z,25.94
2023-05-05T02:42:51.614Z,25.93
2023-05-05T02:43:51.529Z,25.92
2023-05-05T02:44:51.520Z,25.92
2023-05-05T02:45:51.543Z,25.94
2023-05-05T02:46:51.562Z,25.93
2023-05-05T02:47:51.568Z,25.92
2023-05-05T02:48:51.554Z,25.92
2023-05-05T02:49:51.549Z,25.92
2023-05-05T02:50:51.578Z,25.93
2023-05-05T02:51:51.555Z,25.93
2023-05-05T02:52:51.559Z,25.93
2023-05-05T02:53:51.557Z,25.92
2023-05-05T02:54:51.537Z,25.93
2023-05-05T02:55:51.582Z,25.90
2023-05-05T02:56:51.536Z,25.93
2023-05-05T02:57:51.539Z,25.92
2023-05-05T02:58:51.547Z,25.93
2023-05-05T02:59:51.554Z,25.92
2023-05-05T03:00:51.560Z,25.90
2023-05-05T03:01:51.647Z,25.90
2023-05-05T03:02:51.659Z,25.90
2023-05-05T03:03:51.686Z,25.92
2023-05-05T03:04:51.552Z,25.92
2023-05-05T03:05:51.589Z,25.92
2023-05-05T03:06:51.632Z,25.90
2023-05-05T03:07:51.573Z,25.90
2023-05-05T03:08:51.586Z,25.90
2023-05-05T03:09:51.588Z,25.90
2023-05-05T03:10:51.599Z,25.89
2023-05-05T03:11:51.608Z,25.90
2023-05-05T03:12:51.663Z,25.87
2023-05-05T03:13:51.578Z,25.92
2023-05-05T03:14:51.551Z,25.89
2023-05-05T03:15:51.555Z,25.90
2023-05-05T03:16:51.584Z,25.86
2023-05-05T03:17:51.575Z,25.87
2023-05-05T03:18:51.492Z,25.89
2023-05-05T03:19:51.486Z,25.89
2023-05-05T03:20:51.459Z,25.90
2023-05-05T03:21:51.478Z,25.87
2023-05-05T03:22:51.469Z,25.87
2023-05-05T03:23:51.411Z,25.89
2023-05-05T03:24:51.416Z,25.86
2023-05-05T03:25:51.388Z,25.87
2023-05-05T03:26:51.372Z,25.87
2023-05-05T03:27:51.356Z,25.87
2023-05-05T03:28:51.341Z,25.87
2023-05-05T03:29:51.331Z,25.89
2023-05-05T03:30:51.322Z,25.87
2023-05-05T03:31:51.314Z,25.87
2023-05-05T03:32:51.326Z,25.87
2023-05-05T03:33:51.258Z,25.86
2023-05-05T03:34:51.245Z,25.86
2023-05-05T03:35:51.289Z,25.84
2023-05-05T03:36:51.229Z,25.86
2023-05-05T03:37:51.234Z,25.84
2023-05-05T03:38:51.229Z,25.87
2023-05-05T03:39:51.211Z,25.84
2023-05-05T03:40:51.218Z,25.86
2023-05-05T03:41:51.175Z,25.84
2023-05-05T03:42:51.770Z,25.87
2023-05-05T03:43:51.164Z,25.84
2023-05-05T03:44:51.136Z,25.83
2023-05-05T03:45:51.186Z,25.86
2023-05-05T03:46:51.100Z,25.86
2023-05-05T03:47:51.127Z,25.86
2023-05-05T03:48:51.078Z,25.86
2023-05-05T03:49:51.067Z,25.86
2023-05-05T03:50:51.054Z,25.86
2023-05-05T03:51:51.037Z,25.82
2023-05-05T03:52:51.032Z,25.84
2023-05-05T03:53:51.015Z,25.86
2023-05-05T03:54:51.025Z,25.84
2023-05-05T03:55:51.034Z,25.84
2023-05-05T03:56:50.987Z,25.84
2023-05-05T03:57:50.998Z,25.83
2023-05-05T03:58:50.952Z,25.80
2023-05-05T03:59:50.972Z,25.82
2023-05-05T04:00:50.980Z,25.84
2023-05-05T04:01:50.976Z,25.82
2023-05-05T04:02:50.977Z,25.84
2023-05-05T04:03:50.928Z,25.82
2023-05-05T04:04:50.909Z,25.82
2023-05-05T04:05:50.917Z,25.82
2023-05-05T04:06:50.885Z,25.83
2023-05-05T04:07:50.882Z,25.80
2023-05-05T04:08:50.857Z,25.83
2023-05-05T04:09:50.864Z,25.83
2023-05-05T04:10:50.864Z,25.82
2023-05-05T04:11:50.822Z,25.83
2023-05-05T04:12:50.863Z,25.82
2023-05-05T04:13:50.805Z,25.83
2023-05-05T04:14:50.797Z,25.83
2023-05-05T04:15:50.795Z,25.82
2023-05-05T04:16:50.790Z,25.82
2023-05-05T04:17:50.799Z,25.82
2023-05-05T04:18:50.767Z,25.82
2023-05-05T04:19:50.736Z,25.82
2023-05-05T04:20:50.728Z,25.82
2023-05-05T04:21:50.734Z,25.82
2023-05-05T04:22:52.628Z,25.83
2023-05-05T04:23:50.688Z,25.83
2023-05-05T04:24:50.668Z,25.80
2023-05-05T04:25:50.664Z,25.82
2023-05-05T04:26:50.668Z,25.84
2023-05-05T04:27:50.650Z,25.83
2023-05-05T04:28:50.598Z,25.84
2023-05-05T04:29:50.587Z,25.82
2023-05-05T04:30:50.793Z,25.83
2023-05-05T04:31:50.604Z,25.82
2023-05-05T04:32:50.548Z,25.83
2023-05-05T04:33:50.515Z,25.84
2023-05-05T04:34:50.495Z,25.83
2023-05-05T04:35:50.489Z,25.83
2023-05-05T04:36:50.479Z,25.82
2023-05-05T04:37:50.436Z,25.82
2023-05-05T04:38:50.448Z,25.84
2023-05-05T04:39:50.433Z,25.82
2023-05-05T04:40:50.398Z,25.84
2023-05-05T04:41:50.381Z,25.83
2023-05-05T04:42:50.392Z,25.80
2023-05-05T04:43:50.345Z,25.83
2023-05-05T04:44:50.334Z,25.83
2023-05-05T04:45:50.309Z,25.86
2023-05-05T04:46:50.347Z,25.86
2023-05-05T04:47:50.362Z,25.83
2023-05-05T04:48:50.263Z,25.84
2023-05-05T04:49:50.248Z,25.84
2023-05-05T04:50:50.222Z,25.86
2023-05-05T04:51:50.223Z,25.84
2023-05-05T04:52:52.047Z,25.86
2023-05-05T04:53:50.200Z,25.84
2023-05-05T04:54:50.182Z,25.84
2023-05-05T04:55:50.168Z,25.84
2023-05-05T04:56:50.152Z,25.84
2023-05-05T04:57:50.135Z,25.83
2023-05-05T04:58:50.147Z,25.83
2023-05-05T04:59:50.097Z,25.84
2023-05-05T05:00:50.086Z,25.83
2023-05-05T05:01:50.138Z,25.83
2023-05-05T05:02:50.107Z,25.84
2023-05-05T05:03:50.065Z,25.86
2023-05-05T05:04:50.021Z,25.86
2023-05-05T05:05:50.003Z,25.83
2023-05-05T05:06:49.985Z,25.87
2023-05-05T05:07:49.973Z,25.86
2023-05-05T05:08:49.955Z,25.87
2023-05-05T05:09:49.931Z,25.86
2023-05-05T05:10:49.914Z,25.84
2023-05-05T05:11:49.897Z,25.86
2023-05-05T05:12:50.318Z,25.84
2023-05-05T05:13:49.857Z,25.87
2023-05-05T05:14:49.855Z,25.87
2023-05-05T05:15:49.810Z,25.86
2023-05-05T05:16:49.896Z,25.86
2023-05-05T05:17:49.854Z,25.87
2023-05-05T05:18:49.760Z,25.89
2023-05-05T05:19:49.744Z,25.86
2023-05-05T05:20:49.732Z,25.87
2023-05-05T05:21:49.710Z,25.86
2023-05-05T05:22:49.722Z,25.87
2023-05-05T05:23:49.672Z,25.86
2023-05-05T05:24:49.661Z,25.86
2023-05-05T05:25:49.640Z,25.87
2023-05-05T05:26:49.614Z,25.86
2023-05-05T05:27:58.537Z,25.84
2023-05-05T05:28:49.817Z,25.86
2023-05-05T05:29:49.590Z,25.87
2023-05-05T05:30:49.549Z,25.87
2023-05-05T05:31:49.523Z,25.89
2023-05-05T05:32:49.494Z,25.87
2023-05-05T05:33:49.474Z,25.72
2023-05-05T05:34:49.453Z,25.86
2023-05-05T05:35:49.436Z,25.84
2023-05-05T05:36:49.401Z,25.89
2023-05-05T05:37:49.388Z,25.90
2023-05-05T05:38:49.370Z,25.90
2023-05-05T05:39:49.355Z,25.92
2023-05-05T05:40:49.333Z,25.94
2023-05-05T05:41:49.311Z,25.93
2023-05-05T05:42:49.301Z,25.96
2023-05-05T05:43:49.271Z,25.97
2023-05-05T05:44:49.249Z,25.83
2023-05-05T05:45:49.268Z,25.89
2023-05-05T05:46:49.341Z,25.93
2023-05-05T05:47:49.251Z,25.96
2023-05-05T05:48:49.172Z,25.96
2023-05-05T05:49:49.119Z,25.96
2023-05-05T05:50:49.528Z,26.01
2023-05-05T05:51:49.330Z,26.04
2023-05-05T05:52:49.332Z,26.04
2023-05-05T05:53:58.759Z,26.05
2023-05-05T05:54:50.012Z,26.08
2023-05-05T05:56:04.614Z,26.13
2023-05-05T05:56:49.330Z,26.13
2023-05-05T05:57:48.917Z,26.14
2023-05-05T05:58:49.012Z,26.18
2023-05-05T05:59:52.070Z,26.20
2023-05-05T06:00:48.880Z,26.26
2023-05-05T06:01:48.828Z,26.27
2023-05-05T06:03:04.621Z,26.30
2023-05-05T06:03:52.086Z,26.32
2023-05-05T06:04:51.914Z,26.38
2023-05-05T06:05:48.698Z,26.39
2023-05-05T06:06:48.685Z,26.45
2023-05-05T06:08:04.303Z,26.45
2023-05-05T06:08:48.603Z,26.45
2023-05-05T06:09:55.964Z,26.51
2023-05-05T06:10:55.963Z,26.54
2023-05-05T06:11:48.856Z,26.55
2023-05-05T06:12:55.931Z,26.55
2023-05-05T06:13:51.665Z,26.59
2023-05-05T06:14:48.423Z,26.62
2023-05-05T06:15:49.469Z,26.60
2023-05-05T06:18:04.037Z,26.66
2023-05-05T06:18:48.321Z,26.68
2023-05-05T06:19:48.284Z,26.68
2023-05-05T06:20:51.484Z,26.72
2023-05-05T06:21:48.231Z,26.72
2023-05-05T06:22:51.374Z,26.73
2023-05-05T06:23:51.544Z,26.76
2023-05-05T06:24:48.106Z,26.79
2023-05-05T06:25:48.102Z,26.80
2023-05-05T06:26:48.072Z,26.82
2023-05-05T06:27:48.027Z,26.85
2023-05-05T06:28:49.350Z,26.83
2023-05-05T06:29:48.983Z,26.85
2023-05-05T06:30:47.930Z,26.85
2023-05-05T06:31:48.172Z,26.86
2023-05-05T06:32:47.980Z,26.86
2023-05-05T06:33:48.022Z,26.87
2023-05-05T06:34:48.022Z,26.87
2023-05-05T06:35:48.132Z,26.90
2023-05-05T06:36:48.051Z,26.90
2023-05-05T06:37:48.022Z,26.91
2023-05-05T06:38:48.339Z,26.89
2023-05-05T06:39:48.048Z,26.89
2023-05-05T06:40:48.027Z,26.91
2023-05-05T06:41:48.031Z,26.91
2023-05-05T06:42:48.070Z,26.91
2023-05-05T06:43:49.347Z,26.94
2023-05-05T06:44:48.082Z,26.94
2023-05-05T06:45:48.097Z,26.93
2023-05-05T06:47:48.114Z,26.97
2023-05-05T06:48:48.385Z,26.93
2023-05-05T06:49:48.013Z,26.97
2023-05-05T06:50:48.051Z,26.96
2023-05-05T06:51:47.911Z,26.96
2023-05-05T06:52:47.900Z,26.99
2023-05-05T12:18:12.178Z,27.85
2023-05-05T12:19:12.983Z,27.90
2023-05-05T12:20:13.302Z,27.89
2023-05-05T12:21:12.955Z,27.96
2023-05-05T12:22:12.936Z,27.93
2023-05-05T12:23:12.937Z,27.94
2023-05-05T12:24:12.897Z,27.97
2023-05-05T12:25:12.880Z,27.94
2023-05-05T12:26:12.855Z,27.92
2023-05-05T12:27:12.831Z,27.89
2023-05-05T12:28:12.820Z,27.90
2023-05-05T12:29:12.801Z,27.93
2023-05-05T12:30:12.771Z,27.97
2023-05-05T12:31:12.826Z,27.96
2023-05-05T12:32:12.763Z,28.00
2023-05-05T12:33:12.712Z,27.97
2023-05-05T12:34:12.726Z,28.05
2023-05-05T12:35:12.681Z,27.94
2023-05-05T12:36:12.733Z,27.96
2023-05-05T12:37:12.646Z,27.97
2023-05-05T12:38:12.590Z,27.96
2023-05-05T12:39:12.598Z,27.92
2023-05-05T12:40:12.557Z,27.93
2023-05-05T12:41:12.525Z,27.94
2023-05-05T12:42:12.502Z,27.92
2023-05-05T12:43:12.505Z,27.97
2023-05-05T12:44:12.450Z,27.99
2023-05-05T12:45:12.453Z,27.99
2023-05-05T12:46:12.482Z,28.00
2023-05-05T12:47:12.716Z,28.01
2023-05-05T12:48:12.394Z,28.04
2023-05-05T12:49:12.441Z,28.05
2023-05-05T12:50:12.460Z,28.11
2023-05-05T12:51:12.319Z,28.13
2023-05-05T12:52:12.295Z,28.11
2023-05-05T12:53:12.271Z,28.10
2023-05-05T12:54:12.257Z,28.13
2023-05-05T12:55:12.882Z,28.13
2023-05-05T12:56:12.208Z,28.10
2023-05-05T12:57:12.195Z,28.17
2023-05-05T12:58:12.166Z,28.18
2023-05-05T12:59:12.162Z,28.22
2023-05-05T13:00:12.130Z,28.18
2023-05-05T13:01:12.134Z,28.20
2023-05-05T13:02:12.157Z,28.17
2023-05-05T13:03:12.215Z,28.20
2023-05-05T13:04:12.162Z,28.22
2023-05-05T13:05:12.221Z,28.21
2023-05-05T13:06:12.201Z,28.20
2023-05-05T13:07:12.214Z,28.21
2023-05-05T13:08:12.057Z,28.22
2023-05-05T13:09:12.043Z,28.21
2023-05-05T13:10:12.238Z,28.27
2023-05-05T13:11:11.999Z,28.22
2023-05-05T13:12:12.089Z,28.18
2023-05-05T13:13:12.365Z,28.22
2023-05-05T13:14:11.937Z,28.24
2023-05-05T13:15:11.912Z,28.27
2023-05-05T13:16:11.943Z,28.24
2023-05-05T13:17:12.230Z,28.28
2023-05-05T13:18:11.910Z,28.30
2023-05-05T13:19:11.851Z,28.25
2023-05-05T13:20:11.845Z,28.25
2023-05-05T13:21:11.817Z,28.21
2023-05-05T13:22:11.908Z,28.08
2023-05-05T13:23:11.828Z,28.14
2023-05-05T13:24:21.353Z,28.14
2023-05-05T13:25:12.353Z,28.14
2023-05-05T13:26:11.735Z,28.14
2023-05-05T13:27:11.706Z,28.17
2023-05-05T13:28:11.683Z,28.11
2023-05-05T13:29:11.757Z,28.10
2023-05-05T13:30:11.647Z,28.20
2023-05-05T13:31:11.631Z,27.97
2023-05-05T13:32:11.593Z,27.83
2023-05-05T13:33:11.564Z,27.93
2023-05-05T13:34:11.512Z,27.94
2023-05-05T13:35:13.195Z,27.93
2023-05-05T13:36:11.467Z,27.89
2023-05-05T13:37:11.485Z,27.97
2023-05-05T13:38:11.532Z,28.04
2023-05-05T13:39:11.364Z,28.01
2023-05-05T13:40:11.351Z,27.97
2023-05-05T13:41:11.327Z,27.89
2023-05-05T13:42:11.320Z,27.89
2023-05-05T13:43:11.295Z,27.93
2023-05-05T13:44:11.227Z,27.92
2023-05-05T13:45:11.243Z,27.99
2023-05-05T13:46:19.669Z,27.93
2023-05-05T13:47:11.197Z,27.94
2023-05-05T13:48:11.115Z,27.96
2023-05-05T13:49:11.256Z,27.92
2023-05-05T13:50:11.056Z,27.96
2023-05-05T13:51:11.047Z,27.92
2023-05-05T13:52:11.014Z,27.92
2023-05-05T13:53:10.976Z,27.92
2023-05-05T13:54:10.971Z,27.94
2023-05-05T13:55:10.973Z,28.00
2023-05-05T13:56:11.253Z,28.00
2023-05-05T13:57:10.862Z,27.99
2023-05-05T13:58:10.836Z,27.97
2023-05-05T13:59:10.802Z,28.01
2023-05-05T14:00:10.767Z,28.00
2023-05-05T14:01:10.820Z,28.01
2023-05-05T14:02:10.708Z,28.01
2023-05-05T14:03:10.687Z,27.97
2023-05-05T14:04:10.687Z,28.00
2023-05-05T14:05:10.857Z,27.94
2023-05-05T14:06:10.603Z,27.94
2023-05-05T14:07:10.572Z,27.93
2023-05-05T14:08:10.536Z,27.92
2023-05-05T14:09:10.746Z,27.90
2023-05-05T14:10:10.600Z,27.90
2023-05-05T14:11:10.754Z,27.90
2023-05-05T14:12:10.435Z,27.87
2023-05-05T14:13:10.443Z,27.89
2023-05-05T14:14:10.394Z,27.87
2023-05-05T14:15:10.667Z,27.85
2023-05-05T14:16:10.372Z,27.87
2023-05-05T14:17:10.323Z,27.89
2023-05-05T14:18:10.287Z,27.94
2023-05-05T14:19:10.252Z,27.89
2023-05-05T14:20:10.223Z,27.94
2023-05-05T14:21:10.201Z,27.92
2023-05-05T14:22:10.175Z,27.90
2023-05-05T14:23:10.140Z,27.94
2023-05-05T14:24:10.120Z,27.94
2023-05-05T14:25:10.247Z,27.97
2023-05-05T14:26:10.156Z,28.07
2023-05-05T14:27:10.033Z,28.07
2023-05-05T14:28:10.036Z,28.08
2023-05-05T14:29:10.057Z,28.01
2023-05-05T14:30:10.064Z,28.03
2023-05-05T14:31:10.077Z,28.01
2023-05-05T14:32:10.123Z,27.99
2023-05-05T14:33:10.097Z,28.03
2023-05-05T14:34:10.255Z,27.93
2023-05-05T14:35:10.248Z,27.96
2023-05-05T14:36:10.121Z,27.94
2023-05-05T14:37:10.144Z,27.93
2023-05-05T14:38:10.171Z,27.90
2023-05-05T14:39:10.256Z,27.94
2023-05-05T14:40:10.145Z,27.94
2023-05-05T14:41:10.151Z,27.93
2023-05-05T14:42:10.240Z,27.97
2023-05-05T14:43:10.129Z,27.99
2023-05-05T14:44:10.104Z,28.01
2023-05-05T14:45:10.279Z,28.07
2023-05-05T14:46:10.374Z,28.07
2023-05-05T14:47:10.090Z,28.08
2023-05-05T14:48:10.074Z,28.13
2023-05-05T14:49:10.081Z,28.14
2023-05-05T14:50:10.064Z,28.14
2023-05-05T14:51:10.045Z,28.17
2023-05-05T14:52:10.020Z,28.15
2023-05-05T14:53:10.016Z,28.14
2023-05-05T14:54:24.122Z,28.14
2023-05-05T14:55:10.169Z,28.13
2023-05-05T14:56:09.937Z,28.08
2023-05-05T14:57:09.920Z,28.07
2023-05-05T14:58:09.897Z,28.10
2023-05-05T14:59:09.855Z,28.07
2023-05-05T15:00:09.819Z,28.10
2023-05-05T15:01:09.819Z,28.08
2023-05-05T15:02:09.771Z,28.18
2023-05-05T15:03:09.780Z,28.18
2023-05-05T15:04:09.697Z,28.21
2023-05-05T15:05:09.789Z,28.27
2023-05-05T15:06:09.630Z,28.28
2023-05-05T15:07:09.589Z,28.30
2023-05-05T15:08:09.556Z,28.31
2023-05-05T15:09:09.527Z,28.35
2023-05-05T15:10:09.496Z,28.30
2023-05-05T15:11:09.471Z,28.28
2023-05-05T15:12:09.441Z,28.21
2023-05-05T15:13:09.480Z,28.24
2023-05-05T15:14:09.405Z,28.22
2023-05-05T15:15:09.601Z,28.28
2023-05-05T15:16:09.351Z,28.28
2023-05-05T15:17:09.326Z,28.31
2023-05-05T15:18:09.242Z,28.35
2023-05-05T15:19:09.216Z,28.34
2023-05-05T15:20:09.177Z,28.32
2023-05-05T15:21:09.155Z,28.31
2023-05-05T15:22:09.113Z,28.30
2023-05-05T15:23:09.084Z,28.34
2023-05-05T15:24:09.039Z,28.32
2023-05-05T15:25:09.335Z,28.34
2023-05-05T15:26:08.980Z,28.35
2023-05-05T15:27:08.956Z,28.32
2023-05-05T15:28:08.938Z,28.37
2023-05-05T15:29:08.878Z,28.42
2023-05-05T15:30:08.994Z,28.42
2023-05-05T15:31:08.816Z,28.41
2023-05-05T15:32:08.873Z,28.44
2023-05-05T15:33:08.747Z,28.45
2023-05-05T15:34:08.710Z,28.44
2023-05-05T15:35:08.890Z,28.45
2023-05-05T15:36:08.651Z,28.44
2023-05-05T15:37:08.617Z,28.45
2023-05-05T15:38:08.590Z,28.44
2023-05-05T15:39:08.556Z,28.42
2023-05-05T15:40:08.530Z,28.41
2023-05-05T15:41:08.531Z,28.39
2023-05-05T15:42:08.522Z,28.45
2023-05-05T15:43:08.516Z,28.45
2023-05-05T15:44:08.506Z,28.44
2023-05-05T15:45:08.640Z,28.45
2023-05-05T15:46:08.562Z,28.47
2023-05-05T15:47:08.606Z,28.47
2023-05-05T15:48:08.522Z,28.45
2023-05-05T15:49:08.446Z,28.49
2023-05-05T15:50:08.455Z,28.41
2023-05-05T15:51:08.458Z,28.34
2023-05-05T15:52:08.463Z,28.32
2023-05-05T15:53:08.497Z,28.27
2023-05-05T15:54:08.481Z,28.22
2023-05-05T15:55:08.706Z,28.21
2023-05-05T15:56:08.546Z,28.17
2023-05-05T15:57:08.515Z,28.14
2023-05-05T15:58:08.526Z,28.10
2023-05-05T15:59:08.549Z,28.15
2023-05-05T16:00:08.579Z,28.11
2023-05-05T16:01:08.660Z,28.07
2023-05-05T16:02:08.776Z,28.04
2023-05-05T16:03:08.825Z,28.03
2023-05-05T16:04:08.728Z,27.99
2023-05-05T16:05:08.962Z,27.96
2023-05-05T16:06:08.792Z,27.94
2023-05-05T16:07:08.837Z,27.93
2023-05-05T16:08:08.892Z,27.93
2023-05-05T16:09:08.938Z,27.90
2023-05-05T16:10:08.978Z,27.90
2023-05-05T16:11:09.015Z,27.90
2023-05-05T16:12:09.059Z,27.89
2023-05-05T16:13:09.174Z,27.90
2023-05-05T16:14:09.147Z,27.83
2023-05-05T16:15:09.391Z,27.83
2023-05-05T16:16:09.236Z,27.82
2023-05-05T16:17:09.328Z,27.75
2023-05-05T16:18:09.407Z,27.77
2023-05-05T16:19:09.365Z,27.70
2023-05-05T16:20:09.425Z,27.83
2023-05-05T16:21:09.436Z,27.90
2023-05-05T16:22:09.466Z,27.93
2023-05-05T16:23:09.495Z,27.96
2023-05-05T16:24:09.488Z,27.93
2023-05-05T16:25:09.696Z,27.94
2023-05-05T16:26:09.445Z,27.94
2023-05-05T16:27:09.446Z,27.99
2023-05-05T16:28:09.419Z,27.96
2023-05-05T16:29:09.425Z,27.92
2023-05-05T16:30:09.475Z,27.96
2023-05-05T16:31:09.552Z,27.93
2023-05-05T16:32:09.461Z,27.94
2023-05-05T16:33:09.554Z,27.99
2023-05-05T16:34:09.553Z,27.90
2023-05-05T16:35:09.584Z,27.97
2023-05-05T16:36:09.418Z,27.94
2023-05-05T16:37:09.421Z,27.94
2023-05-05T16:38:09.424Z,27.89
2023-05-05T16:39:09.427Z,27.87
2023-05-05T16:40:09.428Z,27.89
2023-05-05T16:41:09.479Z,27.93
2023-05-05T16:42:09.491Z,27.92
2023-05-05T16:43:09.529Z,27.93
2023-05-05T16:44:09.571Z,27.93
2023-05-05T16:45:09.852Z,27.93
2023-05-05T16:46:09.683Z,27.96
2023-05-05T16:47:09.659Z,27.97
2023-05-05T16:48:09.732Z,28.01
2023-05-05T16:49:09.690Z,28.03
2023-05-05T16:50:09.814Z,28.07
2023-05-05T16:51:09.710Z,28.08
2023-05-05T16:52:09.748Z,28.11
2023-05-05T16:53:09.771Z,28.11
2023-05-05T16:54:09.757Z,28.11
2023-05-05T16:55:09.921Z,28.13
2023-05-05T16:56:09.790Z,28.13
2023-05-05T16:57:09.791Z,28.17
2023-05-05T16:58:09.783Z,28.20
2023-05-05T16:59:09.790Z,28.22
2023-05-05T17:00:09.785Z,28.18
2023-05-05T17:01:09.853Z,28.21
2023-05-05T17:02:09.866Z,28.21
2023-05-05T17:03:09.781Z,28.24
2023-05-05T17:04:09.783Z,28.21
2023-05-05T17:05:10.020Z,28.22
2023-05-05T17:06:09.870Z,28.25
2023-05-05T17:07:09.760Z,28.22
2023-05-05T17:08:09.753Z,28.24
2023-05-05T17:09:09.744Z,28.28
2023-05-05T17:10:09.724Z,28.30
2023-05-05T17:11:11.684Z,28.27
2023-05-05T17:12:09.680Z,28.30
2023-05-05T17:13:09.697Z,28.28
2023-05-05T17:14:09.613Z,28.28
2023-05-05T17:15:09.781Z,28.30
2023-05-05T17:16:09.589Z,28.27
2023-05-05T17:17:09.529Z,28.27
2023-05-05T17:18:09.582Z,28.30
2023-05-05T17:19:09.455Z,28.28
2023-05-05T17:20:09.416Z,28.28
2023-05-05T17:21:09.386Z,28.27
2023-05-05T17:22:09.489Z,28.24
2023-05-05T17:23:09.340Z,28.24
2023-05-05T17:24:09.303Z,28.21
2023-05-05T17:25:09.621Z,28.24
2023-05-05T17:26:09.253Z,28.21
2023-05-05T17:27:09.236Z,28.21
2023-05-05T17:28:09.205Z,28.20
2023-05-05T17:29:10.423Z,28.15
2023-05-05T17:30:09.143Z,28.07
2023-05-05T17:31:09.139Z,28.13
2023-05-05T17:32:09.252Z,28.10
2023-05-05T17:33:09.181Z,28.10
2023-05-05T17:34:09.017Z,28.11
2023-05-05T17:35:09.218Z,28.11
2023-05-05T17:36:08.973Z,28.10
2023-05-05T17:37:08.927Z,28.05
2023-05-05T17:38:09.038Z,28.08
2023-05-05T17:39:08.889Z,28.00
2023-05-05T17:40:08.870Z,27.96
2023-05-05T17:41:09.453Z,27.94
2023-05-05T17:42:09.930Z,27.99
2023-05-05T17:43:09.533Z,27.99
2023-05-05T17:44:08.993Z,28.00
2023-05-05T17:45:09.013Z,28.01
2023-05-05T17:46:09.259Z,28.05
2023-05-05T17:47:09.056Z,28.07
2023-05-05T17:48:08.982Z,28.10
2023-05-05T17:49:08.626Z,28.13
2023-05-05T17:50:08.599Z,28.17
2023-05-05T17:51:08.619Z,28.15
2023-05-05T17:52:08.614Z,28.17
2023-05-05T17:53:08.640Z,28.20
2023-05-05T17:54:08.740Z,28.20
2023-05-05T17:55:08.931Z,28.21
2023-05-05T17:56:09.118Z,28.25
2023-05-05T17:57:08.681Z,28.27
2023-05-05T17:58:08.680Z,28.25
2023-05-05T17:59:08.694Z,28.25
2023-05-05T18:00:08.701Z,28.30
2023-05-05T18:01:08.724Z,28.30
2023-05-05T18:02:08.765Z,28.30
2023-05-05T18:03:08.813Z,28.34
2023-05-05T18:04:08.707Z,28.37
2023-05-05T18:05:08.999Z,28.37
2023-05-05T18:06:08.715Z,28.39
2023-05-05T18:07:08.715Z,28.35
2023-05-05T18:08:08.715Z,28.39
2023-05-05T18:09:10.454Z,28.41
2023-05-05T18:10:08.787Z,28.41
2023-05-05T18:11:08.656Z,28.39
2023-05-05T18:12:08.643Z,28.42
2023-05-05T18:13:08.665Z,28.44
2023-05-05T18:14:08.564Z,28.44
2023-05-05T18:15:08.825Z,28.45
2023-05-05T18:16:08.543Z,28.47
2023-05-05T18:17:08.477Z,28.48
2023-05-05T18:18:08.475Z,28.45
2023-05-05T18:19:08.402Z,28.47